createdAt,value
2022-11-29T00:01:18.024Z,23.33
2022-11-29T00:03:45.462Z,27.00
2022-11-29T00:06:18.471Z,25.25
2022-11-29T00:08:46.150Z,26.40
2022-11-29T00:11:38.552Z,22.35
2022-11-29T00:14:07.197Z,19.60
2022-11-29T00:16:34.806Z,26.42
2022-11-29T00:19:02.332Z,23.75
2022-11-29T00:21:29.566Z,23.70
2022-11-29T00:23:56.756Z,22.92
2022-11-29T00:26:23.947Z,23.87
2022-11-29T00:28:51.248Z,22.75
2022-11-29T00:31:24.247Z,20.33
2022-11-29T00:33:51.534Z,17.92
2022-11-29T00:36:19.131Z,19.63
2022-11-29T00:38:46.732Z,22.10
2022-11-29T00:41:13.535Z,21.00
2022-11-29T00:43:40.751Z,19.10
2022-11-29T00:46:08.436Z,21.27
2022-11-29T00:48:35.748Z,21.75
2022-11-29T00:51:03.295Z,20.13
2022-11-29T00:53:30.026Z,19.20
2022-11-29T00:55:57.396Z,17.63
2022-11-29T00:58:24.246Z,22.02
2022-11-29T01:00:51.444Z,21.65
2022-11-29T01:03:18.308Z,21.93
2022-11-29T01:05:45.634Z,22.92
2022-11-29T01:08:13.788Z,23.27
2022-11-29T01:10:41.029Z,25.25
2022-11-29T01:13:08.682Z,21.85
2022-11-29T01:15:36.070Z,23.83
2022-11-29T01:18:03.297Z,23.17
2022-11-29T01:20:30.563Z,24.17
2022-11-29T01:22:57.718Z,25.17
2022-11-29T01:25:24.925Z,23.33
2022-11-29T01:27:51.672Z,23.80
2022-11-29T01:30:18.865Z,23.90
2022-11-29T01:32:46.039Z,20.15
2022-11-29T01:35:13.275Z,21.70
2022-11-29T01:37:40.531Z,19.55
2022-11-29T01:40:07.915Z,17.43
2022-11-29T01:42:35.126Z,21.42
2022-11-29T01:45:23.084Z,21.75
2022-11-29T01:47:52.827Z,23.25
2022-11-29T01:50:20.214Z,20.60
2022-11-29T01:52:47.982Z,19.90
2022-11-29T01:55:15.959Z,22.73
2022-11-29T01:57:44.172Z,20.77
2022-11-29T02:00:16.933Z,23.45
2022-11-29T02:02:56.211Z,26.20
2022-11-29T02:05:24.691Z,21.93
2022-11-29T02:07:54.920Z,19.02
2022-11-29T02:10:32.676Z,19.60
2022-11-29T02:13:21.071Z,20.65
2022-11-29T02:16:24.595Z,20.38
2022-11-29T02:19:42.455Z,18.50
2022-11-29T02:22:24.504Z,19.27
2022-11-29T02:25:11.740Z,21.35
2022-11-29T02:27:57.059Z,20.10
2022-11-29T02:31:00.760Z,18.48
2022-11-29T02:33:45.914Z,17.03
2022-11-29T02:36:20.086Z,14.63
2022-11-29T02:39:01.996Z,19.20
2022-11-29T02:41:40.943Z,21.58
2022-11-29T02:44:16.288Z,17.73
2022-11-29T02:46:52.129Z,17.33
2022-11-29T02:49:30.897Z,22.63
2022-11-29T02:52:04.999Z,19.15
2022-11-29T02:54:53.798Z,20.88
2022-11-29T02:57:39.280Z,22.40
2022-11-29T03:00:14.890Z,18.60
2022-11-29T03:02:42.131Z,18.50
2022-11-29T03:05:49.540Z,19.80
2022-11-29T03:08:47.326Z,20.77
2022-11-29T03:11:24.172Z,22.33
2022-11-29T03:14:20.734Z,22.00
2022-11-29T03:17:30.723Z,17.92
2022-11-29T03:20:27.956Z,18.38
2022-11-29T03:23:01.119Z,19.55
2022-11-29T03:25:43.439Z,17.60
2022-11-29T03:28:33.585Z,19.07
2022-11-29T03:31:31.863Z,15.40
2022-11-29T03:34:47.184Z,19.33
2022-11-29T03:37:49.080Z,19.65
2022-11-29T03:40:29.605Z,17.60
2022-11-29T03:43:36.643Z,18.70
2022-11-29T03:46:12.158Z,21.02
2022-11-29T03:48:46.982Z,21.15
2022-11-29T03:51:34.390Z,19.08
2022-11-29T03:54:13.090Z,23.13
2022-11-29T03:56:41.037Z,17.47
2022-11-29T03:59:13.441Z,21.15
2022-11-29T04:01:40.643Z,18.52
2022-11-29T04:04:23.130Z,18.13
2022-11-29T04:06:50.322Z,17.63
2022-11-29T04:09:42.701Z,20.47
2022-11-29T04:12:12.564Z,22.88
2022-11-29T04:14:39.733Z,23.65
2022-11-29T04:17:48.693Z,22.10
2022-11-29T04:20:15.895Z,19.85
2022-11-29T04:22:43.081Z,20.27
2022-11-29T04:25:29.827Z,18.65
2022-11-29T04:28:05.258Z,21.75
2022-11-29T04:31:14.848Z,23.58
2022-11-29T04:34:07.736Z,21.70
2022-11-29T04:36:51.363Z,22.27
2022-11-29T04:39:49.509Z,21.52
2022-11-29T04:42:43.340Z,17.25
2022-11-29T04:45:28.972Z,21.27
2022-11-29T04:48:47.146Z,17.73
2022-11-29T04:51:55.142Z,19.07
2022-11-29T04:54:49.359Z,18.67
2022-11-29T04:57:43.589Z,18.85
2022-11-29T05:00:11.932Z,21.30
2022-11-29T05:03:01.565Z,16.63
2022-11-29T05:06:07.037Z,21.20
2022-11-29T05:08:52.846Z,17.50
2022-11-29T05:11:26.280Z,21.45
2022-11-29T05:14:09.015Z,22.15
2022-11-29T05:17:19.015Z,21.90
2022-11-29T05:19:48.527Z,19.23
2022-11-29T05:22:25.949Z,23.88
2022-11-29T05:24:53.162Z,16.90
2022-11-29T05:27:41.425Z,16.70
2022-11-29T05:30:15.951Z,19.27
2022-11-29T05:33:04.326Z,21.90
2022-11-29T05:35:34.158Z,19.73
2022-11-29T05:38:37.570Z,20.95
2022-11-29T05:41:32.171Z,12.82
2022-11-29T05:44:11.656Z,19.17
2022-11-29T05:47:03.963Z,18.70
2022-11-29T05:49:55.808Z,20.08
2022-11-29T05:52:25.022Z,17.98
2022-11-29T05:55:06.907Z,21.17
2022-11-29T05:57:51.839Z,19.60
2022-11-29T06:00:19.929Z,17.00
2022-11-29T06:02:47.112Z,16.75
2022-11-29T06:05:35.486Z,19.15
2022-11-29T06:08:19.523Z,17.27
2022-11-29T06:11:00.909Z,18.13
2022-11-29T06:14:05.587Z,19.67
2022-11-29T06:17:05.868Z,16.25
2022-11-29T06:20:09.025Z,17.98
2022-11-29T06:22:58.996Z,15.98
2022-11-29T06:25:47.037Z,16.13
2022-11-29T06:28:39.392Z,15.33
2022-11-29T06:31:19.937Z,16.95
2022-11-29T06:34:16.527Z,17.70
2022-11-29T06:36:58.915Z,15.60
2022-11-29T06:39:26.073Z,16.83
2022-11-29T06:41:53.311Z,19.50
2022-11-29T06:44:20.408Z,15.77
2022-11-29T06:47:07.100Z,13.82
2022-11-29T06:49:46.748Z,16.48
2022-11-29T06:52:25.364Z,15.32
2022-11-29T06:55:13.004Z,17.43
2022-11-29T06:58:13.853Z,17.60
2022-11-29T07:00:54.128Z,16.92
2022-11-29T07:03:45.459Z,16.25
2022-11-29T07:06:27.116Z,17.08
2022-11-29T07:09:01.144Z,17.37
2022-11-29T07:11:28.642Z,15.75
2022-11-29T07:13:56.001Z,16.40
2022-11-29T07:16:55.839Z,17.65
2022-11-29T07:19:31.468Z,16.48
2022-11-29T07:22:15.772Z,14.33
2022-11-29T07:25:29.099Z,14.23
2022-11-29T07:28:30.837Z,12.52
2022-11-29T07:31:20.515Z,13.48
2022-11-29T07:33:47.714Z,12.77
2022-11-29T07:36:20.695Z,11.67
2022-11-29T07:38:56.966Z,12.25
2022-11-29T07:41:35.904Z,12.85
2022-11-29T07:44:30.680Z,14.02
2022-11-29T07:46:58.121Z,12.77
2022-11-29T07:49:25.099Z,13.57
2022-11-29T07:51:52.351Z,13.10
2022-11-29T07:54:20.038Z,12.35
2022-11-29T07:56:47.045Z,13.48
2022-11-29T07:59:14.687Z,10.88
2022-11-29T08:01:41.918Z,12.60
2022-11-29T08:04:09.489Z,20.40
2022-11-29T08:06:36.911Z,26.83
2022-11-29T08:09:04.858Z,15.13
2022-11-29T08:11:32.125Z,13.20
2022-11-29T08:14:01.149Z,11.53
2022-11-29T08:16:28.169Z,12.10
2022-11-29T08:18:55.465Z,10.35
2022-11-29T08:21:22.704Z,11.52
2022-11-29T08:23:50.282Z,10.95
2022-11-29T08:26:17.943Z,10.33
2022-11-29T08:28:44.957Z,11.50
2022-11-29T08:31:13.832Z,10.68
2022-11-29T08:33:42.714Z,11.80
2022-11-29T08:36:13.373Z,11.13
2022-11-29T08:38:40.926Z,11.97
2022-11-29T08:41:12.957Z,11.40
2022-11-29T08:43:40.217Z,12.52
2022-11-29T08:46:07.850Z,11.30
2022-11-29T08:48:36.915Z,10.75
2022-11-29T08:51:05.785Z,10.60
2022-11-29T08:53:41.900Z,10.38
2022-11-29T08:56:59.751Z,9.73
2022-11-29T08:59:00.404Z,10.43
2022-11-29T09:01:29.210Z,12.15
2022-11-29T09:03:59.476Z,11.37
2022-11-29T09:06:41.130Z,18.88
2022-11-29T09:09:08.334Z,13.13
2022-11-29T09:11:36.014Z,12.13
2022-11-29T09:14:05.649Z,12.38
2022-11-29T09:16:35.243Z,11.57
2022-11-29T09:19:03.097Z,23.75
2022-11-29T09:21:31.953Z,11.00
2022-11-29T09:24:01.126Z,10.77
2022-11-29T09:26:33.159Z,11.48
2022-11-29T09:29:01.600Z,9.97
2022-11-29T09:31:30.270Z,10.05
2022-11-29T09:33:57.458Z,10.48
2022-11-29T09:36:28.436Z,10.82
2022-11-29T09:38:56.794Z,11.65
2022-11-29T09:41:32.801Z,11.10
2022-11-29T09:44:08.554Z,9.50
2022-11-29T09:46:48.948Z,10.80
2022-11-29T09:49:44.614Z,9.52
2022-11-29T09:52:42.478Z,10.38
2022-11-29T09:55:28.324Z,9.30
2022-11-29T09:57:59.270Z,10.13
2022-11-29T10:00:26.612Z,11.18
2022-11-29T10:02:58.471Z,12.35
2022-11-29T10:05:29.960Z,11.90
2022-11-29T10:08:06.515Z,12.13
2022-11-29T10:10:43.196Z,13.65
2022-11-29T10:13:21.153Z,12.75
2022-11-29T10:15:53.399Z,9.98
2022-11-29T10:18:28.730Z,9.63
2022-11-29T10:20:58.648Z,10.60
2022-11-29T10:23:25.857Z,9.05
2022-11-29T10:25:55.235Z,13.95
2022-11-29T10:28:31.202Z,10.68
2022-11-29T10:31:12.953Z,11.15
2022-11-29T10:33:41.267Z,9.73
2022-11-29T10:36:37.000Z,11.27
2022-11-29T10:39:17.277Z,12.10
2022-11-29T10:41:44.563Z,12.20
2022-11-29T10:44:14.368Z,10.27
2022-11-29T10:46:42.017Z,11.80
2022-11-29T10:49:18.599Z,11.40
2022-11-29T10:51:48.193Z,13.05
2022-11-29T10:54:39.962Z,11.13
2022-11-29T10:57:15.812Z,10.82
2022-11-29T11:00:03.770Z,12.70
2022-11-29T11:02:31.820Z,11.32
2022-11-29T11:04:59.446Z,11.25
2022-11-29T11:07:35.554Z,11.10
2022-11-29T11:10:16.345Z,11.90
2022-11-29T11:13:04.680Z,12.90
2022-11-29T11:15:32.768Z,11.95
2022-11-29T11:18:04.731Z,11.63
2022-11-29T11:20:41.078Z,13.57
2022-11-29T11:23:21.101Z,14.55
2022-11-29T11:25:50.112Z,11.60
2022-11-29T11:28:23.836Z,11.57
2022-11-29T11:30:57.715Z,11.45
2022-11-29T11:33:28.395Z,13.05
2022-11-29T11:36:06.763Z,12.77
2022-11-29T11:38:51.424Z,12.50
2022-11-29T11:41:21.038Z,12.45
2022-11-29T11:43:58.980Z,11.65
2022-11-29T11:46:49.451Z,13.70
2022-11-29T11:49:39.308Z,13.70
2022-11-29T11:52:07.111Z,13.07
2022-11-29T11:54:34.394Z,11.77
2022-11-29T11:57:01.674Z,12.57
2022-11-29T11:59:28.944Z,12.52
2022-11-29T12:01:55.786Z,12.13
2022-11-29T12:04:27.360Z,12.40
2022-11-29T12:07:29.615Z,12.18
2022-11-29T12:10:11.340Z,12.73
2022-11-29T12:12:42.838Z,13.63
2022-11-29T12:15:38.487Z,13.13
2022-11-29T12:18:18.127Z,12.77
2022-11-29T12:21:08.734Z,12.85
2022-11-29T12:23:56.743Z,14.50
2022-11-29T12:26:57.660Z,12.15
2022-11-29T12:29:28.639Z,13.15
2022-11-29T12:32:21.450Z,15.53
2022-11-29T12:35:27.724Z,14.23
2022-11-29T12:37:54.897Z,13.23
2022-11-29T12:41:04.222Z,13.48
2022-11-29T12:43:45.123Z,12.82
2022-11-29T12:46:15.013Z,13.07
2022-11-29T12:49:29.659Z,13.55
2022-11-29T12:52:25.336Z,12.60
2022-11-29T12:55:36.256Z,13.93
2022-11-29T12:58:03.382Z,13.07
2022-11-29T13:00:38.811Z,15.53
2022-11-29T13:03:15.656Z,12.38
2022-11-29T13:05:42.893Z,12.70
2022-11-29T13:08:27.658Z,13.13
2022-11-29T13:11:07.194Z,17.55
2022-11-29T13:13:41.089Z,17.37
2022-11-29T13:16:08.658Z,14.88
2022-11-29T13:18:56.238Z,13.80
2022-11-29T13:21:29.257Z,13.93
2022-11-29T13:24:08.809Z,13.77
2022-11-29T13:26:38.537Z,15.70
2022-11-29T13:29:07.452Z,13.05
2022-11-29T13:31:35.014Z,13.43
2022-11-29T13:34:15.169Z,18.17
2022-11-29T13:37:15.145Z,16.85
2022-11-29T13:39:55.760Z,14.83
2022-11-29T13:42:31.847Z,14.27
2022-11-29T13:45:33.544Z,19.98
2022-11-29T13:48:01.730Z,14.57
2022-11-29T13:50:43.741Z,13.75
2022-11-29T13:53:10.963Z,12.27
2022-11-29T13:55:45.081Z,11.70
2022-11-29T13:58:17.815Z,14.50
2022-11-29T14:00:45.507Z,12.07
2022-11-29T14:03:25.912Z,12.23
2022-11-29T14:06:01.843Z,12.73
2022-11-29T14:09:10.236Z,13.88
2022-11-29T14:11:33.312Z,12.07
2022-11-29T14:14:08.759Z,11.20
2022-11-29T14:16:42.661Z,12.48
2022-11-29T14:19:13.017Z,12.93
2022-11-29T14:22:07.550Z,12.50
2022-11-29T14:24:35.378Z,11.18
2022-11-29T14:27:12.548Z,11.82
2022-11-29T14:29:52.510Z,11.95
2022-11-29T14:32:25.370Z,12.60
2022-11-29T14:35:11.511Z,11.32
2022-11-29T14:37:49.711Z,12.80
2022-11-29T14:40:28.640Z,14.32
2022-11-29T14:42:55.907Z,12.52
2022-11-29T14:45:29.595Z,12.90
2022-11-29T14:47:57.418Z,11.63
2022-11-29T14:50:33.616Z,12.70
2022-11-29T14:53:01.178Z,13.25
2022-11-29T14:55:35.304Z,13.25
2022-11-29T14:58:06.251Z,12.87
2022-11-29T15:00:33.562Z,12.40
2022-11-29T15:03:28.665Z,13.43
2022-11-29T15:05:59.461Z,11.77
2022-11-29T15:08:29.270Z,15.05
2022-11-29T15:11:10.073Z,13.67
2022-11-29T15:13:42.434Z,15.48
2022-11-29T15:16:27.372Z,12.82
2022-11-29T15:18:54.851Z,12.85
2022-11-29T15:21:39.624Z,13.95
2022-11-29T15:24:15.503Z,14.17
2022-11-29T15:27:00.588Z,16.88
2022-11-29T15:29:29.197Z,14.77
2022-11-29T15:31:58.963Z,13.30
2022-11-29T15:34:36.942Z,13.90
2022-11-29T15:37:04.741Z,14.33
2022-11-29T15:39:36.694Z,14.55
2022-11-29T15:42:15.843Z,18.58
2022-11-29T15:44:47.353Z,19.70
2022-11-29T15:47:22.632Z,15.65
2022-11-29T15:49:51.077Z,14.63
2022-11-29T15:52:38.930Z,13.75
2022-11-29T15:55:11.969Z,19.63
2022-11-29T15:57:42.309Z,18.13
2022-11-29T16:00:20.379Z,17.85
2022-11-29T16:03:00.962Z,15.20
2022-11-29T16:05:28.230Z,14.45
2022-11-29T16:08:01.730Z,14.65
2022-11-29T16:10:43.566Z,16.35
2022-11-29T16:13:25.786Z,16.08
2022-11-29T16:16:22.991Z,44.70
2022-11-29T16:18:50.877Z,17.80
2022-11-29T16:21:35.757Z,21.65
2022-11-29T16:24:22.294Z,23.05
2022-11-29T16:26:50.672Z,19.50
2022-11-29T16:29:28.670Z,21.00
2022-11-29T16:31:55.877Z,16.58
2022-11-29T16:34:33.168Z,16.63
2022-11-29T16:37:11.897Z,16.10
2022-11-29T16:39:39.468Z,16.35
2022-11-29T16:42:25.924Z,16.83
2022-11-29T16:44:59.194Z,16.20
2022-11-29T16:47:31.234Z,14.85
2022-11-29T16:50:17.059Z,14.85
2022-11-29T16:52:44.424Z,16.02
2022-11-29T16:55:11.726Z,15.40
2022-11-29T16:57:39.446Z,15.90
2022-11-29T17:00:21.204Z,16.92
2022-11-29T17:02:48.340Z,20.48
2022-11-29T17:05:15.352Z,18.45
2022-11-29T17:07:42.807Z,17.80
2022-11-29T17:10:15.056Z,17.73
2022-11-29T17:12:47.763Z,21.88
2022-11-29T17:15:15.712Z,24.08
2022-11-29T17:17:43.577Z,18.50
2022-11-29T17:20:12.284Z,19.30
2022-11-29T17:22:39.757Z,18.63
2022-11-29T17:25:07.146Z,17.00
2022-11-29T17:27:34.391Z,16.27
2022-11-29T17:30:01.587Z,17.52
2022-11-29T17:32:28.793Z,15.87
2022-11-29T17:34:56.003Z,15.57
2022-11-29T17:37:23.266Z,15.13
2022-11-29T17:39:50.443Z,18.63
2022-11-29T17:42:17.699Z,13.40
2022-11-29T17:44:44.968Z,17.07
2022-11-29T17:47:12.168Z,16.55
2022-11-29T17:49:39.406Z,18.15
2022-11-29T17:52:06.663Z,11.68
2022-11-29T17:54:34.066Z,18.40
2022-11-29T17:57:01.867Z,14.83
2022-11-29T17:59:29.055Z,13.88
2022-11-29T18:01:56.322Z,17.52
2022-11-29T18:04:23.612Z,18.20
2022-11-29T18:06:50.640Z,16.25
2022-11-29T18:09:18.495Z,16.10
2022-11-29T18:11:49.379Z,16.42
2022-11-29T18:14:20.351Z,12.27
2022-11-29T18:16:47.724Z,12.82
2022-11-29T18:19:17.921Z,11.13
2022-11-29T18:21:45.104Z,13.00
2022-11-29T18:24:12.526Z,13.35
2022-11-29T18:26:39.954Z,17.50
2022-11-29T18:29:07.613Z,13.38
2022-11-29T18:31:40.005Z,13.00
2022-11-29T18:34:12.844Z,14.57
2022-11-29T18:36:45.587Z,11.75
2022-11-29T18:39:18.030Z,14.75
2022-11-29T18:41:48.153Z,13.45
2022-11-29T18:44:16.753Z,13.68
2022-11-29T18:46:45.024Z,13.77
2022-11-29T18:49:16.772Z,12.35
2022-11-29T18:51:45.553Z,18.48
2022-11-29T18:54:13.805Z,12.85
2022-11-29T18:56:41.487Z,12.90
2022-11-29T18:59:16.450Z,12.90
2022-11-29T19:01:45.108Z,11.18
2022-11-29T19:04:19.111Z,11.00
2022-11-29T19:06:46.707Z,12.30
2022-11-29T19:09:16.087Z,10.40
2022-11-29T19:11:43.362Z,9.80
2022-11-29T19:14:12.101Z,11.38
2022-11-29T19:16:44.759Z,11.00
2022-11-29T19:19:12.420Z,11.93
2022-11-29T19:21:40.113Z,11.32
2022-11-29T19:24:13.924Z,10.87
2022-11-29T19:26:42.989Z,10.15
2022-11-29T19:29:10.558Z,11.23
2022-11-29T19:31:39.293Z,11.20
2022-11-29T19:34:06.805Z,11.02
2022-11-29T19:36:34.075Z,10.57
2022-11-29T19:39:02.715Z,11.45
2022-11-29T19:41:34.235Z,10.10
2022-11-29T19:44:06.582Z,10.85
2022-11-29T19:46:39.408Z,9.77
2022-11-29T19:49:08.195Z,10.40
2022-11-29T19:51:35.861Z,9.48
2022-11-29T19:54:05.398Z,9.48
2022-11-29T19:56:32.920Z,9.68
2022-11-29T19:59:00.225Z,9.02
2022-11-29T20:01:37.840Z,9.27
2022-11-29T20:04:07.518Z,8.32
2022-11-29T20:06:34.719Z,8.57
2022-11-29T20:09:02.239Z,8.55
2022-11-29T20:11:29.199Z,8.65
2022-11-29T20:13:58.931Z,8.93
2022-11-29T20:16:27.486Z,9.40
2022-11-29T20:18:54.633Z,11.10
2022-11-29T20:21:27.980Z,9.60
2022-11-29T20:23:59.905Z,12.55
2022-11-29T20:26:28.443Z,13.33
2022-11-29T20:28:55.839Z,10.98
2022-11-29T20:31:23.534Z,10.38
2022-11-29T20:33:52.904Z,10.57
2022-11-29T20:36:43.570Z,9.65
2022-11-29T20:39:19.124Z,10.40
2022-11-29T20:41:54.022Z,9.50
2022-11-29T20:44:24.163Z,9.20
2022-11-29T20:46:51.748Z,8.50
2022-11-29T20:49:19.048Z,8.50
2022-11-29T20:52:00.520Z,9.20
2022-11-29T20:54:27.815Z,8.98
2022-11-29T20:56:55.029Z,7.80
2022-11-29T20:59:22.249Z,8.30
2022-11-29T21:01:49.519Z,8.25
2022-11-29T21:04:23.216Z,10.47
2022-11-29T21:06:50.465Z,10.02
2022-11-29T21:09:17.678Z,10.93
2022-11-29T21:11:44.974Z,9.60
2022-11-29T21:14:12.433Z,8.60
2022-11-29T21:16:39.884Z,10.07
2022-11-29T21:19:07.410Z,9.45
2022-11-29T21:21:45.894Z,11.48
2022-11-29T21:24:27.763Z,8.63
2022-11-29T21:26:54.729Z,9.18
2022-11-29T21:29:24.501Z,8.83
2022-11-29T21:31:53.681Z,8.52
2022-11-29T21:34:21.487Z,9.13
2022-11-29T21:36:56.440Z,9.13
2022-11-29T21:39:28.647Z,7.40
2022-11-29T21:41:55.836Z,9.77
2022-11-29T21:44:22.713Z,9.23
2022-11-29T21:46:49.522Z,9.77
2022-11-29T21:49:16.748Z,10.00
2022-11-29T21:51:43.544Z,9.45
2022-11-29T21:54:10.790Z,9.90
2022-11-29T21:56:37.990Z,9.38
2022-11-29T21:59:05.788Z,9.68
2022-11-29T22:01:33.948Z,9.70
2022-11-29T22:04:01.254Z,9.77
2022-11-29T22:06:29.357Z,9.50
2022-11-29T22:08:56.981Z,10.68
2022-11-29T22:11:30.871Z,9.07
2022-11-29T22:14:14.607Z,9.52
2022-11-29T22:16:42.334Z,8.88
2022-11-29T22:19:12.295Z,8.80
2022-11-29T22:21:40.532Z,8.18
2022-11-29T22:24:08.749Z,9.30
2022-11-29T22:26:36.086Z,9.43
2022-11-29T22:29:03.298Z,9.77
2022-11-29T22:31:30.637Z,9.80
2022-11-29T22:33:57.820Z,9.32
2022-11-29T22:36:25.260Z,9.57
2022-11-29T22:38:52.504Z,7.65
2022-11-29T22:41:19.660Z,8.95
2022-11-29T22:43:47.042Z,7.90
2022-11-29T22:46:15.167Z,7.63
2022-11-29T22:48:44.001Z,9.25
2022-11-29T22:51:16.527Z,8.48
2022-11-29T22:53:49.275Z,9.60
2022-11-29T22:56:16.538Z,9.93
2022-11-29T22:58:43.748Z,7.75
2022-11-29T23:01:21.461Z,9.45
2022-11-29T23:03:54.152Z,7.95
2022-11-29T23:06:23.378Z,8.82
2022-11-29T23:08:51.952Z,9.23
2022-11-29T23:11:21.721Z,9.30
2022-11-29T23:13:48.705Z,9.35
2022-11-29T23:16:18.151Z,9.38
2022-11-29T23:18:48.422Z,8.88
2022-11-29T23:21:19.269Z,9.27
2022-11-29T23:23:49.207Z,8.80
2022-11-29T23:26:28.892Z,9.50
2022-11-29T23:28:56.564Z,8.57
2022-11-29T23:31:24.294Z,8.48
2022-11-29T23:33:51.814Z,9.33
2022-11-29T23:36:19.121Z,7.90
2022-11-29T23:38:48.106Z,8.63
2022-11-29T23:41:15.319Z,12.15
2022-11-29T23:43:42.631Z,9.75
2022-11-29T23:46:21.282Z,9.20
2022-11-29T23:48:48.872Z,9.75
2022-11-29T23:51:16.571Z,10.02
2022-11-29T23:53:43.882Z,10.07
2022-11-29T23:56:14.312Z,9.60
2022-11-29T23:58:41.903Z,9.83
